Terminal Aerodrome Forecast
Issued by NWS Sioux Falls, SD

Home | Current Version | Previous Version | Text Only | Print | Product List | Glossary On
Versions: 1 2 3 4 5 6 7 8 9 10 11 12 13 14
000
FTUS43 KFSD 192327
TAFFSD
TAF
KFSD 192327Z 2000/2024 32007KT P6SM SCT250
     FM200100 35007KT P6SM SCT250
     FM200900 02009KT P6SM BKN200
     FM201500 03009KT P6SM SCT120 BKN200=

USA.gov is the U.S. government's official web portal to all federal, state and local government web resources and services.